sensor_id;sensor_type;location;lat;lon;timestamp;temperature;humidity
59098;DHT22;44883;52.760;6.610;2022-09-02T00:00:35;14.50;82.30
59098;DHT22;44883;52.760;6.610;2022-09-02T00:03:00;14.50;83.40
59098;DHT22;44883;52.760;6.610;2022-09-02T00:05:26;14.50;83.50
59098;DHT22;44883;52.760;6.610;2022-09-02T00:07:53;14.50;82.50
59098;DHT22;44883;52.760;6.610;2022-09-02T00:10:19;14.50;82.70
59098;DHT22;44883;52.760;6.610;2022-09-02T00:12:44;14.50;83.80
59098;DHT22;44883;52.760;6.610;2022-09-02T00:15:10;14.40;83.00
59098;DHT22;44883;52.760;6.610;2022-09-02T00:17:36;14.50;84.00
59098;DHT22;44883;52.760;6.610;2022-09-02T00:20:03;14.40;84.30
59098;DHT22;44883;52.760;6.610;2022-09-02T00:22:28;14.40;84.60
59098;DHT22;44883;52.760;6.610;2022-09-02T00:24:54;14.40;83.80
59098;DHT22;44883;52.760;6.610;2022-09-02T00:27:19;14.30;84.90
59098;DHT22;44883;52.760;6.610;2022-09-02T00:29:45;14.30;84.70
59098;DHT22;44883;52.760;6.610;2022-09-02T00:32:11;14.20;85.30
59098;DHT22;44883;52.760;6.610;2022-09-02T00:34:36;14.30;86.20
59098;DHT22;44883;52.760;6.610;2022-09-02T00:37:02;14.20;86.40
59098;DHT22;44883;52.760;6.610;2022-09-02T00:39:28;14.20;86.10
59098;DHT22;44883;52.760;6.610;2022-09-02T00:41:53;14.20;86.90
59098;DHT22;44883;52.760;6.610;2022-09-02T00:44:19;14.10;86.00
59098;DHT22;44883;52.760;6.610;2022-09-02T00:46:45;14.10;86.10
59098;DHT22;44883;52.760;6.610;2022-09-02T00:49:21;14.10;87.10
59098;DHT22;44883;52.760;6.610;2022-09-02T00:52:07;14.10;86.80
59098;DHT22;44883;52.760;6.610;2022-09-02T00:54:36;14.00;87.60
59098;DHT22;44883;52.760;6.610;2022-09-02T00:57:09;14.00;87.10
59098;DHT22;44883;52.760;6.610;2022-09-02T01:00:07;14.00;87.60
59098;DHT22;44883;52.760;6.610;2022-09-02T01:02:35;14.00;88.20
59098;DHT22;44883;52.760;6.610;2022-09-02T01:05:04;14.00;87.70
59098;DHT22;44883;52.760;6.610;2022-09-02T01:07:33;14.00;88.90
59098;DHT22;44883;52.760;6.610;2022-09-02T01:10:00;13.90;89.20
59098;DHT22;44883;52.760;6.610;2022-09-02T01:12:26;13.90;89.60
59098;DHT22;44883;52.760;6.610;2022-09-02T01:14:54;13.80;88.60
59098;DHT22;44883;52.760;6.610;2022-09-02T01:17:20;13.90;89.90
59098;DHT22;44883;52.760;6.610;2022-09-02T01:19:52;13.80;90.10
59098;DHT22;44883;52.760;6.610;2022-09-02T01:22:25;13.80;90.20
59098;DHT22;44883;52.760;6.610;2022-09-02T01:24:52;13.80;90.30
59098;DHT22;44883;52.760;6.610;2022-09-02T01:27:20;13.80;90.40
59098;DHT22;44883;52.760;6.610;2022-09-02T01:29:51;13.80;90.40
59098;DHT22;44883;52.760;6.610;2022-09-02T01:32:17;13.80;90.40
59098;DHT22;44883;52.760;6.610;2022-09-02T01:34:43;13.70;90.10
59098;DHT22;44883;52.760;6.610;2022-09-02T01:37:08;13.70;90.40
59098;DHT22;44883;52.760;6.610;2022-09-02T01:39:34;13.60;90.10
59098;DHT22;44883;52.760;6.610;2022-09-02T01:42:00;13.60;90.90
59098;DHT22;44883;52.760;6.610;2022-09-02T01:44:27;13.60;91.00
59098;DHT22;44883;52.760;6.610;2022-09-02T01:46:53;13.60;91.10
59098;DHT22;44883;52.760;6.610;2022-09-02T01:49:19;13.60;91.20
59098;DHT22;44883;52.760;6.610;2022-09-02T01:51:45;13.60;91.20
59098;DHT22;44883;52.760;6.610;2022-09-02T01:54:11;13.60;91.30
59098;DHT22;44883;52.760;6.610;2022-09-02T01:56:37;13.60;91.30
59098;DHT22;44883;52.760;6.610;2022-09-02T01:59:03;13.50;91.00
59098;DHT22;44883;52.760;6.610;2022-09-02T02:01:29;13.50;91.90
59098;DHT22;44883;52.760;6.610;2022-09-02T02:03:54;13.50;91.70
59098;DHT22;44883;52.760;6.610;2022-09-02T02:06:20;13.50;91.30
59098;DHT22;44883;52.760;6.610;2022-09-02T02:08:46;13.40;91.80
59098;DHT22;44883;52.760;6.610;2022-09-02T02:11:18;13.40;91.90
59098;DHT22;44883;52.760;6.610;2022-09-02T02:13:44;13.40;91.90
59098;DHT22;44883;52.760;6.610;2022-09-02T02:16:09;13.40;91.70
59098;DHT22;44883;52.760;6.610;2022-09-02T02:18:35;13.40;92.10
59098;DHT22;44883;52.760;6.610;2022-09-02T02:21:02;13.40;91.80
59098;DHT22;44883;52.760;6.610;2022-09-02T02:23:27;13.30;91.70
59098;DHT22;44883;52.760;6.610;2022-09-02T02:25:53;13.40;92.30
59098;DHT22;44883;52.760;6.610;2022-09-02T02:28:19;13.30;92.40
59098;DHT22;44883;52.760;6.610;2022-09-02T02:30:45;13.30;92.40
59098;DHT22;44883;52.760;6.610;2022-09-02T02:33:11;13.30;92.10
59098;DHT22;44883;52.760;6.610;2022-09-02T02:35:36;13.20;92.30
59098;DHT22;44883;52.760;6.610;2022-09-02T02:38:02;13.30;92.70
59098;DHT22;44883;52.760;6.610;2022-09-02T02:40:28;13.20;92.70
59098;DHT22;44883;52.760;6.610;2022-09-02T02:42:54;13.20;92.30
59098;DHT22;44883;52.760;6.610;2022-09-02T02:45:20;13.20;92.50
59098;DHT22;44883;52.760;6.610;2022-09-02T02:47:46;13.10;92.30
59098;DHT22;44883;52.760;6.610;2022-09-02T02:50:15;13.10;92.40
59098;DHT22;44883;52.760;6.610;2022-09-02T02:52:41;13.10;92.70
59098;DHT22;44883;52.760;6.610;2022-09-02T02:55:08;13.10;93.10
59098;DHT22;44883;52.760;6.610;2022-09-02T02:57:35;13.10;92.70
59098;DHT22;44883;52.760;6.610;2022-09-02T03:00:09;13.00;92.70
59098;DHT22;44883;52.760;6.610;2022-09-02T03:02:35;13.00;92.70
59098;DHT22;44883;52.760;6.610;2022-09-02T03:05:04;13.00;92.70
59098;DHT22;44883;52.760;6.610;2022-09-02T03:07:30;13.00;93.50
59098;DHT22;44883;52.760;6.610;2022-09-02T03:09:56;13.00;93.70
59098;DHT22;44883;52.760;6.610;2022-09-02T03:12:22;12.90;93.20
59098;DHT22;44883;52.760;6.610;2022-09-02T03:14:48;12.90;93.60
59098;DHT22;44883;52.760;6.610;2022-09-02T03:17:13;12.90;93.90
59098;DHT22;44883;52.760;6.610;2022-09-02T03:19:39;12.90;93.20
59098;DHT22;44883;52.760;6.610;2022-09-02T03:22:05;12.80;93.50
59098;DHT22;44883;52.760;6.610;2022-09-02T03:24:31;12.80;94.20
59098;DHT22;44883;52.760;6.610;2022-09-02T03:26:57;12.90;94.30
59098;DHT22;44883;52.760;6.610;2022-09-02T03:29:22;12.90;94.40
59098;DHT22;44883;52.760;6.610;2022-09-02T03:31:48;12.90;94.40
59098;DHT22;44883;52.760;6.610;2022-09-02T03:34:14;12.80;93.70
59098;DHT22;44883;52.760;6.610;2022-09-02T03:36:39;12.80;93.90
59098;DHT22;44883;52.760;6.610;2022-09-02T03:39:07;12.80;94.00
59098;DHT22;44883;52.760;6.610;2022-09-02T03:41:33;12.80;94.70
59098;DHT22;44883;52.760;6.610;2022-09-02T03:43:59;12.80;94.60
59098;DHT22;44883;52.760;6.610;2022-09-02T03:46:26;12.80;94.70
59098;DHT22;44883;52.760;6.610;2022-09-02T03:48:52;12.80;94.20
59098;DHT22;44883;52.760;6.610;2022-09-02T03:51:21;12.70;94.30
59098;DHT22;44883;52.760;6.610;2022-09-02T03:53:47;12.70;94.50
59098;DHT22;44883;52.760;6.610;2022-09-02T03:56:14;12.70;95.00
59098;DHT22;44883;52.760;6.610;2022-09-02T03:58:44;12.60;95.10
59098;DHT22;44883;52.760;6.610;2022-09-02T04:01:21;12.60;94.60
59098;DHT22;44883;52.760;6.610;2022-09-02T04:03:47;12.50;94.60
59098;DHT22;44883;52.760;6.610;2022-09-02T04:06:15;12.50;94.70
59098;DHT22;44883;52.760;6.610;2022-09-02T04:08:42;12.50;94.90
59098;DHT22;44883;52.760;6.610;2022-09-02T04:11:13;12.50;94.90
59098;DHT22;44883;52.760;6.610;2022-09-02T04:13:40;12.50;95.40
59098;DHT22;44883;52.760;6.610;2022-09-02T04:16:08;12.50;95.40
59098;DHT22;44883;52.760;6.610;2022-09-02T04:18:34;12.50;95.90
59098;DHT22;44883;52.760;6.610;2022-09-02T04:21:00;12.50;95.90
59098;DHT22;44883;52.760;6.610;2022-09-02T04:23:26;12.50;95.40
59098;DHT22;44883;52.760;6.610;2022-09-02T04:25:53;12.50;95.20
59098;DHT22;44883;52.760;6.610;2022-09-02T04:28:19;12.50;95.80
59098;DHT22;44883;52.760;6.610;2022-09-02T04:30:45;12.40;95.80
59098;DHT22;44883;52.760;6.610;2022-09-02T04:33:11;12.40;96.00
59098;DHT22;44883;52.760;6.610;2022-09-02T04:35:42;12.30;95.30
59098;DHT22;44883;52.760;6.610;2022-09-02T04:38:08;12.30;95.30
59098;DHT22;44883;52.760;6.610;2022-09-02T04:40:34;12.30;95.20
59098;DHT22;44883;52.760;6.610;2022-09-02T04:43:00;12.30;95.40
59098;DHT22;44883;52.760;6.610;2022-09-02T04:45:26;12.20;95.50
59098;DHT22;44883;52.760;6.610;2022-09-02T04:47:51;12.20;95.50
59098;DHT22;44883;52.760;6.610;2022-09-02T04:50:17;12.20;95.50
59098;DHT22;44883;52.760;6.610;2022-09-02T04:52:42;12.20;95.50
59098;DHT22;44883;52.760;6.610;2022-09-02T04:55:09;12.20;96.30
59098;DHT22;44883;52.760;6.610;2022-09-02T04:57:35;12.20;95.70
59098;DHT22;44883;52.760;6.610;2022-09-02T05:00:06;12.30;96.50
59098;DHT22;44883;52.760;6.610;2022-09-02T05:02:31;12.30;95.90
59098;DHT22;44883;52.760;6.610;2022-09-02T05:04:57;12.30;95.80
59098;DHT22;44883;52.760;6.610;2022-09-02T05:07:23;12.30;95.80
59098;DHT22;44883;52.760;6.610;2022-09-02T05:09:48;12.30;95.70
59098;DHT22;44883;52.760;6.610;2022-09-02T05:12:14;12.40;95.90
59098;DHT22;44883;52.760;6.610;2022-09-02T05:14:40;12.50;95.80
59098;DHT22;44883;52.760;6.610;2022-09-02T05:17:05;12.70;96.00
59098;DHT22;44883;52.760;6.610;2022-09-02T05:19:31;13.10;95.90
59098;DHT22;44883;52.760;6.610;2022-09-02T05:21:56;13.80;94.90
59098;DHT22;44883;52.760;6.610;2022-09-02T05:24:24;14.30;93.30
59098;DHT22;44883;52.760;6.610;2022-09-02T05:26:50;14.80;92.10
59098;DHT22;44883;52.760;6.610;2022-09-02T05:29:16;15.30;90.90
59098;DHT22;44883;52.760;6.610;2022-09-02T05:31:45;15.80;90.80
59098;DHT22;44883;52.760;6.610;2022-09-02T05:34:11;16.20;90.00
59098;DHT22;44883;52.760;6.610;2022-09-02T05:36:36;16.60;88.30
59098;DHT22;44883;52.760;6.610;2022-09-02T05:39:03;17.10;82.30
59098;DHT22;44883;52.760;6.610;2022-09-02T05:41:29;17.50;76.80
59098;DHT22;44883;52.760;6.610;2022-09-02T05:43:58;17.80;71.30
59098;DHT22;44883;52.760;6.610;2022-09-02T05:46:25;18.00;68.60
59098;DHT22;44883;52.760;6.610;2022-09-02T05:48:52;18.10;67.80
59098;DHT22;44883;52.760;6.610;2022-09-02T05:51:38;18.20;66.30
59098;DHT22;44883;52.760;6.610;2022-09-02T05:54:08;18.40;65.20
59098;DHT22;44883;52.760;6.610;2022-09-02T05:56:34;18.50;65.30
59098;DHT22;44883;52.760;6.610;2022-09-02T05:58:59;18.80;63.10
59098;DHT22;44883;52.760;6.610;2022-09-02T06:01:25;19.00;61.00
59098;DHT22;44883;52.760;6.610;2022-09-02T06:03:51;19.30;59.80
59098;DHT22;44883;52.760;6.610;2022-09-02T06:06:18;19.30;58.10
59098;DHT22;44883;52.760;6.610;2022-09-02T06:08:44;19.50;57.40
59098;DHT22;44883;52.760;6.610;2022-09-02T06:11:11;19.60;56.60
59098;DHT22;44883;52.760;6.610;2022-09-02T06:13:39;19.80;55.90
59098;DHT22;44883;52.760;6.610;2022-09-02T06:16:05;20.00;55.00
59098;DHT22;44883;52.760;6.610;2022-09-02T06:18:33;20.30;54.50
59098;DHT22;44883;52.760;6.610;2022-09-02T06:20:59;20.60;53.70
59098;DHT22;44883;52.760;6.610;2022-09-02T06:23:26;20.70;53.00
59098;DHT22;44883;52.760;6.610;2022-09-02T06:25:51;21.00;52.60
59098;DHT22;44883;52.760;6.610;2022-09-02T06:28:17;21.10;51.30
59098;DHT22;44883;52.760;6.610;2022-09-02T06:30:44;21.20;51.30
59098;DHT22;44883;52.760;6.610;2022-09-02T06:33:10;21.50;51.10
59098;DHT22;44883;52.760;6.610;2022-09-02T06:35:39;21.70;50.30
59098;DHT22;44883;52.760;6.610;2022-09-02T06:38:05;21.80;50.10
59098;DHT22;44883;52.760;6.610;2022-09-02T06:40:30;21.90;49.60
59098;DHT22;44883;52.760;6.610;2022-09-02T06:42:56;22.10;49.10
59098;DHT22;44883;52.760;6.610;2022-09-02T06:45:22;22.10;48.40
59098;DHT22;44883;52.760;6.610;2022-09-02T06:47:51;22.10;48.40
59098;DHT22;44883;52.760;6.610;2022-09-02T06:50:18;22.20;48.40
59098;DHT22;44883;52.760;6.610;2022-09-02T06:52:43;22.40;47.60
59098;DHT22;44883;52.760;6.610;2022-09-02T06:55:09;22.50;47.20
59098;DHT22;44883;52.760;6.610;2022-09-02T06:57:36;22.60;47.10
59098;DHT22;44883;52.760;6.610;2022-09-02T07:00:04;22.60;46.90
59098;DHT22;44883;52.760;6.610;2022-09-02T07:02:30;22.70;46.60
59098;DHT22;44883;52.760;6.610;2022-09-02T07:04:56;22.70;46.70
59098;DHT22;44883;52.760;6.610;2022-09-02T07:07:35;22.80;46.50
59098;DHT22;44883;52.760;6.610;2022-09-02T07:10:02;22.60;46.60
59098;DHT22;44883;52.760;6.610;2022-09-02T07:12:28;22.70;46.60
59098;DHT22;44883;52.760;6.610;2022-09-02T07:14:53;22.60;46.60
59098;DHT22;44883;52.760;6.610;2022-09-02T07:17:19;22.70;46.70
59098;DHT22;44883;52.760;6.610;2022-09-02T07:19:48;23.00;46.40
59098;DHT22;44883;52.760;6.610;2022-09-02T07:22:14;23.30;45.90
59098;DHT22;44883;52.760;6.610;2022-09-02T07:24:40;23.50;45.60
59098;DHT22;44883;52.760;6.610;2022-09-02T07:27:06;23.60;45.20
59098;DHT22;44883;52.760;6.610;2022-09-02T07:29:32;23.60;45.20
59098;DHT22;44883;52.760;6.610;2022-09-02T07:31:57;23.70;44.90
59098;DHT22;44883;52.760;6.610;2022-09-02T07:34:23;23.80;44.90
59098;DHT22;44883;52.760;6.610;2022-09-02T07:36:49;24.10;44.60
59098;DHT22;44883;52.760;6.610;2022-09-02T07:39:16;24.10;44.30
59098;DHT22;44883;52.760;6.610;2022-09-02T07:41:45;24.40;44.10
59098;DHT22;44883;52.760;6.610;2022-09-02T07:44:12;24.40;43.80
59098;DHT22;44883;52.760;6.610;2022-09-02T07:46:38;24.40;43.40
59098;DHT22;44883;52.760;6.610;2022-09-02T07:49:06;24.40;43.70
59098;DHT22;44883;52.760;6.610;2022-09-02T07:51:33;24.50;43.00
59098;DHT22;44883;52.760;6.610;2022-09-02T07:54:01;24.50;43.30
59098;DHT22;44883;52.760;6.610;2022-09-02T07:56:26;24.60;42.80
59098;DHT22;44883;52.760;6.610;2022-09-02T07:58:52;24.60;42.50
59098;DHT22;44883;52.760;6.610;2022-09-02T08:01:18;24.50;43.10
59098;DHT22;44883;52.760;6.610;2022-09-02T08:03:45;24.70;43.00
59098;DHT22;44883;52.760;6.610;2022-09-02T08:06:11;24.80;42.80
59098;DHT22;44883;52.760;6.610;2022-09-02T08:08:38;25.10;42.60
59098;DHT22;44883;52.760;6.610;2022-09-02T08:11:04;25.30;42.30
59098;DHT22;44883;52.760;6.610;2022-09-02T08:13:31;25.20;41.60
59098;DHT22;44883;52.760;6.610;2022-09-02T08:15:56;25.40;42.20
59098;DHT22;44883;52.760;6.610;2022-09-02T08:18:23;25.80;42.00
59098;DHT22;44883;52.760;6.610;2022-09-02T08:20:49;26.10;40.90
59098;DHT22;44883;52.760;6.610;2022-09-02T08:23:15;26.20;40.30
59098;DHT22;44883;52.760;6.610;2022-09-02T08:25:41;26.30;40.30
59098;DHT22;44883;52.760;6.610;2022-09-02T08:28:07;26.40;40.30
59098;DHT22;44883;52.760;6.610;2022-09-02T08:30:33;26.40;40.50
59098;DHT22;44883;52.760;6.610;2022-09-02T08:32:59;26.70;39.60
59098;DHT22;44883;52.760;6.610;2022-09-02T08:35:25;26.80;39.40
59098;DHT22;44883;52.760;6.610;2022-09-02T08:37:51;26.80;39.00
59098;DHT22;44883;52.760;6.610;2022-09-02T08:40:22;26.70;38.60
59098;DHT22;44883;52.760;6.610;2022-09-02T08:42:54;26.50;39.40
59098;DHT22;44883;52.760;6.610;2022-09-02T08:50:28;26.30;39.20
59098;DHT22;44883;52.760;6.610;2022-09-02T08:53:29;26.40;39.50
59098;DHT22;44883;52.760;6.610;2022-09-02T08:55:58;26.30;38.70
59098;DHT22;44883;52.760;6.610;2022-09-02T08:58:28;26.20;39.30
59098;DHT22;44883;52.760;6.610;2022-09-02T09:01:12;26.30;39.80
59098;DHT22;44883;52.760;6.610;2022-09-02T09:04:11;26.70;39.60
59098;DHT22;44883;52.760;6.610;2022-09-02T09:12:46;26.70;38.60
59098;DHT22;44883;52.760;6.610;2022-09-02T09:15:39;26.70;38.10
59098;DHT22;44883;52.760;6.610;2022-09-02T09:18:10;26.50;38.40
59098;DHT22;44883;52.760;6.610;2022-09-02T09:20:40;26.40;38.60
59098;DHT22;44883;52.760;6.610;2022-09-02T09:23:29;26.50;38.70
59098;DHT22;44883;52.760;6.610;2022-09-02T09:26:08;26.50;38.00
59098;DHT22;44883;52.760;6.610;2022-09-02T09:28:42;26.70;38.40
59098;DHT22;44883;52.760;6.610;2022-09-02T09:31:12;26.90;38.50
59098;DHT22;44883;52.760;6.610;2022-09-02T09:33:39;27.30;38.00
59098;DHT22;44883;52.760;6.610;2022-09-02T09:36:06;27.30;36.90
59098;DHT22;44883;52.760;6.610;2022-09-02T09:38:33;27.20;37.00
59098;DHT22;44883;52.760;6.610;2022-09-02T09:41:12;27.20;36.90
59098;DHT22;44883;52.760;6.610;2022-09-02T09:43:38;27.30;36.90
59098;DHT22;44883;52.760;6.610;2022-09-02T09:46:28;27.30;36.30
59098;DHT22;44883;52.760;6.610;2022-09-02T09:48:54;27.20;36.90
59098;DHT22;44883;52.760;6.610;2022-09-02T09:51:20;27.30;36.30
59098;DHT22;44883;52.760;6.610;2022-09-02T09:53:46;27.30;35.90
59098;DHT22;44883;52.760;6.610;2022-09-02T10:03:47;27.70;35.90
59098;DHT22;44883;52.760;6.610;2022-09-02T10:09:01;27.70;34.80
59098;DHT22;44883;52.760;6.610;2022-09-02T10:11:29;27.70;34.00
59098;DHT22;44883;52.760;6.610;2022-09-02T10:14:01;27.70;34.40
59098;DHT22;44883;52.760;6.610;2022-09-02T10:22:12;27.40;33.90
59098;DHT22;44883;52.760;6.610;2022-09-02T10:27:33;27.80;34.10
59098;DHT22;44883;52.760;6.610;2022-09-02T10:30:12;28.10;35.10
59098;DHT22;44883;52.760;6.610;2022-09-02T10:35:47;28.00;31.70
59098;DHT22;44883;52.760;6.610;2022-09-02T10:38:26;27.90;31.90
59098;DHT22;44883;52.760;6.610;2022-09-02T10:47:23;27.80;33.80
59098;DHT22;44883;52.760;6.610;2022-09-02T10:50:01;27.60;31.60
59098;DHT22;44883;52.760;6.610;2022-09-02T10:55:20;27.00;32.40
59098;DHT22;44883;52.760;6.610;2022-09-02T11:00:46;26.70;33.00
59098;DHT22;44883;52.760;6.610;2022-09-02T11:03:24;26.40;33.40
59098;DHT22;44883;52.760;6.610;2022-09-02T11:05:56;26.20;33.90
59098;DHT22;44883;52.760;6.610;2022-09-02T11:08:50;25.80;34.90
59098;DHT22;44883;52.760;6.610;2022-09-02T11:11:57;25.50;35.40
59098;DHT22;44883;52.760;6.610;2022-09-02T11:14:34;25.50;36.20
59098;DHT22;44883;52.760;6.610;2022-09-02T11:20:11;24.80;35.50
59098;DHT22;44883;52.760;6.610;2022-09-02T11:22:53;24.60;36.10
59098;DHT22;44883;52.760;6.610;2022-09-02T11:25:38;24.50;36.60
59098;DHT22;44883;52.760;6.610;2022-09-02T11:30:58;24.30;37.30
59098;DHT22;44883;52.760;6.610;2022-09-02T11:33:56;24.30;38.10
59098;DHT22;44883;52.760;6.610;2022-09-02T11:36:24;24.40;37.50
59098;DHT22;44883;52.760;6.610;2022-09-02T11:38:56;24.30;37.90
59098;DHT22;44883;52.760;6.610;2022-09-02T11:41:27;24.30;37.60
59098;DHT22;44883;52.760;6.610;2022-09-02T11:43:58;24.20;37.20
59098;DHT22;44883;52.760;6.610;2022-09-02T11:46:43;24.10;38.40
59098;DHT22;44883;52.760;6.610;2022-09-02T11:49:34;24.10;37.50
59098;DHT22;44883;52.760;6.610;2022-09-02T11:52:27;24.00;37.90
59098;DHT22;44883;52.760;6.610;2022-09-02T11:55:03;23.90;37.60
59098;DHT22;44883;52.760;6.610;2022-09-02T11:57:31;24.00;38.10
59098;DHT22;44883;52.760;6.610;2022-09-02T12:02:41;24.00;37.00
59098;DHT22;44883;52.760;6.610;2022-09-02T12:07:55;24.10;36.70
59098;DHT22;44883;52.760;6.610;2022-09-02T12:18:38;24.00;37.00
59098;DHT22;44883;52.760;6.610;2022-09-02T12:21:06;24.00;36.50
59098;DHT22;44883;52.760;6.610;2022-09-02T12:26:23;24.10;36.00
59098;DHT22;44883;52.760;6.610;2022-09-02T12:28:51;24.20;36.10
59098;DHT22;44883;52.760;6.610;2022-09-02T12:31:39;24.20;37.10
59098;DHT22;44883;52.760;6.610;2022-09-02T12:36:52;24.20;35.90
59098;DHT22;44883;52.760;6.610;2022-09-02T12:44:52;24.30;36.20
59098;DHT22;44883;52.760;6.610;2022-09-02T12:47:25;24.40;36.20
59098;DHT22;44883;52.760;6.610;2022-09-02T12:52:38;24.30;36.30
59098;DHT22;44883;52.760;6.610;2022-09-02T12:57:47;24.40;36.00
59098;DHT22;44883;52.760;6.610;2022-09-02T13:06:10;24.40;36.20
59098;DHT22;44883;52.760;6.610;2022-09-02T13:11:50;24.40;35.40
59098;DHT22;44883;52.760;6.610;2022-09-02T13:20:31;24.60;35.60
59098;DHT22;44883;52.760;6.610;2022-09-02T13:23:22;24.70;35.30
59098;DHT22;44883;52.760;6.610;2022-09-02T13:25:58;24.80;35.80
59098;DHT22;44883;52.760;6.610;2022-09-02T13:28:50;25.00;35.10
59098;DHT22;44883;52.760;6.610;2022-09-02T13:31:24;25.10;34.70
59098;DHT22;44883;52.760;6.610;2022-09-02T13:34:02;25.10;34.70
59098;DHT22;44883;52.760;6.610;2022-09-02T13:36:34;25.20;34.70
59098;DHT22;44883;52.760;6.610;2022-09-02T13:39:17;25.20;35.00
59098;DHT22;44883;52.760;6.610;2022-09-02T13:41:43;25.30;34.50
59098;DHT22;44883;52.760;6.610;2022-09-02T13:44:11;25.20;34.60
59098;DHT22;44883;52.760;6.610;2022-09-02T13:46:46;25.30;34.30
59098;DHT22;44883;52.760;6.610;2022-09-02T13:49:26;25.20;34.40
59098;DHT22;44883;52.760;6.610;2022-09-02T13:51:55;25.40;34.40
59098;DHT22;44883;52.760;6.610;2022-09-02T13:54:35;25.50;34.40
59098;DHT22;44883;52.760;6.610;2022-09-02T13:57:06;25.50;33.40
59098;DHT22;44883;52.760;6.610;2022-09-02T13:59:47;25.50;33.70
59098;DHT22;44883;52.760;6.610;2022-09-02T14:02:20;25.20;33.90
59098;DHT22;44883;52.760;6.610;2022-09-02T14:04:48;25.10;34.20
59098;DHT22;44883;52.760;6.610;2022-09-02T14:07:14;24.90;34.40
59098;DHT22;44883;52.760;6.610;2022-09-02T14:09:43;24.60;34.70
59098;DHT22;44883;52.760;6.610;2022-09-02T14:12:09;24.70;35.40
59098;DHT22;44883;52.760;6.610;2022-09-02T14:14:35;24.80;35.10
59098;DHT22;44883;52.760;6.610;2022-09-02T14:17:21;24.80;34.80
59098;DHT22;44883;52.760;6.610;2022-09-02T14:19:48;25.00;34.40
59098;DHT22;44883;52.760;6.610;2022-09-02T14:22:22;25.10;34.50
59098;DHT22;44883;52.760;6.610;2022-09-02T14:24:48;25.30;34.00
59098;DHT22;44883;52.760;6.610;2022-09-02T14:27:17;25.30;34.20
59098;DHT22;44883;52.760;6.610;2022-09-02T14:29:44;25.20;34.10
59098;DHT22;44883;52.760;6.610;2022-09-02T14:32:20;25.30;34.50
59098;DHT22;44883;52.760;6.610;2022-09-02T14:34:47;25.40;33.60
59098;DHT22;44883;52.760;6.610;2022-09-02T14:37:24;25.20;33.80
59098;DHT22;44883;52.760;6.610;2022-09-02T14:40:07;25.20;33.80
59098;DHT22;44883;52.760;6.610;2022-09-02T14:45:23;25.10;33.60
59098;DHT22;44883;52.760;6.610;2022-09-02T14:47:49;25.00;34.20
59098;DHT22;44883;52.760;6.610;2022-09-02T14:50:18;24.90;34.20
59098;DHT22;44883;52.760;6.610;2022-09-02T14:52:48;24.90;34.80
59098;DHT22;44883;52.760;6.610;2022-09-02T14:58:19;25.00;34.00
59098;DHT22;44883;52.760;6.610;2022-09-02T15:00:48;24.90;34.00
59098;DHT22;44883;52.760;6.610;2022-09-02T15:03:17;25.00;34.80
59098;DHT22;44883;52.760;6.610;2022-09-02T15:05:43;25.00;34.40
59098;DHT22;44883;52.760;6.610;2022-09-02T15:08:09;25.00;34.00
59098;DHT22;44883;52.760;6.610;2022-09-02T15:10:36;25.10;33.80
59098;DHT22;44883;52.760;6.610;2022-09-02T15:13:03;25.00;33.80
59098;DHT22;44883;52.760;6.610;2022-09-02T15:15:29;25.00;33.70
59098;DHT22;44883;52.760;6.610;2022-09-02T15:17:54;24.90;33.50
59098;DHT22;44883;52.760;6.610;2022-09-02T15:20:21;24.80;33.20
59098;DHT22;44883;52.760;6.610;2022-09-02T15:22:47;24.80;33.60
59098;DHT22;44883;52.760;6.610;2022-09-02T15:25:13;24.60;33.80
59098;DHT22;44883;52.760;6.610;2022-09-02T15:27:39;24.60;34.90
59098;DHT22;44883;52.760;6.610;2022-09-02T15:30:05;24.60;34.30
59098;DHT22;44883;52.760;6.610;2022-09-02T15:32:31;24.50;34.30
59098;DHT22;44883;52.760;6.610;2022-09-02T15:34:57;24.40;34.50
59098;DHT22;44883;52.760;6.610;2022-09-02T15:37:23;24.40;34.80
59098;DHT22;44883;52.760;6.610;2022-09-02T15:39:49;24.40;35.00
59098;DHT22;44883;52.760;6.610;2022-09-02T15:42:15;24.40;35.10
59098;DHT22;44883;52.760;6.610;2022-09-02T15:44:42;24.40;35.10
59098;DHT22;44883;52.760;6.610;2022-09-02T15:47:08;24.40;35.20
59098;DHT22;44883;52.760;6.610;2022-09-02T15:49:34;24.40;35.70
59098;DHT22;44883;52.760;6.610;2022-09-02T15:51:59;24.40;35.60
59098;DHT22;44883;52.760;6.610;2022-09-02T15:54:27;24.40;35.60
59098;DHT22;44883;52.760;6.610;2022-09-02T15:56:54;24.40;35.90
59098;DHT22;44883;52.760;6.610;2022-09-02T15:59:20;24.40;36.20
59098;DHT22;44883;52.760;6.610;2022-09-02T16:01:51;24.40;36.10
59098;DHT22;44883;52.760;6.610;2022-09-02T16:04:20;24.40;35.50
59098;DHT22;44883;52.760;6.610;2022-09-02T16:06:47;24.40;35.60
59098;DHT22;44883;52.760;6.610;2022-09-02T16:09:15;24.40;35.70
59098;DHT22;44883;52.760;6.610;2022-09-02T16:11:43;24.40;35.50
59098;DHT22;44883;52.760;6.610;2022-09-02T16:14:09;24.30;35.60
59098;DHT22;44883;52.760;6.610;2022-09-02T16:16:36;24.30;36.00
59098;DHT22;44883;52.760;6.610;2022-09-02T16:19:03;24.30;35.90
59098;DHT22;44883;52.760;6.610;2022-09-02T16:21:29;24.20;36.00
59098;DHT22;44883;52.760;6.610;2022-09-02T16:23:55;24.10;36.50
59098;DHT22;44883;52.760;6.610;2022-09-02T16:26:32;24.10;36.60
59098;DHT22;44883;52.760;6.610;2022-09-02T16:29:03;24.10;37.50
59098;DHT22;44883;52.760;6.610;2022-09-02T16:31:31;24.10;36.70
59098;DHT22;44883;52.760;6.610;2022-09-02T16:34:00;24.10;37.00
59098;DHT22;44883;52.760;6.610;2022-09-02T16:36:28;24.10;37.10
59098;DHT22;44883;52.760;6.610;2022-09-02T16:38:54;24.10;36.90
59098;DHT22;44883;52.760;6.610;2022-09-02T16:41:32;24.10;36.80
59098;DHT22;44883;52.760;6.610;2022-09-02T16:44:03;24.10;36.50
59098;DHT22;44883;52.760;6.610;2022-09-02T16:46:30;24.00;36.80
59098;DHT22;44883;52.760;6.610;2022-09-02T16:48:57;24.10;36.60
59098;DHT22;44883;52.760;6.610;2022-09-02T16:51:23;24.10;35.80
59098;DHT22;44883;52.760;6.610;2022-09-02T16:53:54;24.10;35.80
59098;DHT22;44883;52.760;6.610;2022-09-02T16:56:20;24.10;35.80
59098;DHT22;44883;52.760;6.610;2022-09-02T16:58:46;24.10;36.20
59098;DHT22;44883;52.760;6.610;2022-09-02T17:01:12;24.10;36.40
59098;DHT22;44883;52.760;6.610;2022-09-02T17:03:39;24.10;36.60
59098;DHT22;44883;52.760;6.610;2022-09-02T17:06:05;24.10;36.50
59098;DHT22;44883;52.760;6.610;2022-09-02T17:08:31;24.10;36.20
59098;DHT22;44883;52.760;6.610;2022-09-02T17:11:17;24.10;36.30
59098;DHT22;44883;52.760;6.610;2022-09-02T17:13:47;24.00;36.50
59098;DHT22;44883;52.760;6.610;2022-09-02T17:16:14;24.00;36.50
59098;DHT22;44883;52.760;6.610;2022-09-02T17:18:40;23.90;36.70
59098;DHT22;44883;52.760;6.610;2022-09-02T17:21:12;23.90;37.20
59098;DHT22;44883;52.760;6.610;2022-09-02T17:23:39;23.80;37.40